Ana Sayfa
METAR-TAF:

METAR-TAF

Havaalanları :

Pearland Regional Airport

Houston / Pearland, Teksas, Amerika Birleşik Devletleri

Enlem: 29-31-16N, Boylam: 095-14-31W, yükseklik: 13 m

Güncel hava durumu gözlemi

Rapor saat 05:53 UTC de 57 dakika önce yapıldı.
Sakin rüzgar
Sıcaklık 31°C
Nem 66%
Basınç 1015 hPa
Görüş mesafesi: 14.5 km
Açık gökyüzü

METAR: KLVJ 160553Z AUTO 00000KT 9SM CLR 31/24 A2998 RMK AO2 SLP152 T03060239 10383 20289 404280283 58001

Saat: 01:50 (06:50 UTC)


TAF: eksik

4.000'den fazla havaalanı için hava durumu gözlemleri ve tahminleri (METAR ve TAF raporları).

Kullanılabilir istasyonlar harita üzerinde sarı ve kırmızı noktalarla gösterilir.

İstasyonun adını görmek için fareyi noktanın üzerinde gezdirin.

Sonrasında hava gözlem ve tahminlerini görmek için tıklayın.

Haritayı değiştirmek için: yaklaştırmak için siyah artı işaretli yeşil düğmeye ve uzaklaştırmak için de eksi işaretli düğmeye hızla tıklayın; bitişik haritalar için yeşil okları kullanın.


METAR-TAF: